createdAt,value
2023-04-01T00:00:53.461Z,3.95
2023-04-01T00:03:21.993Z,2.28
2023-04-01T00:05:50.465Z,4.88
2023-04-01T00:08:19.125Z,2.88
2023-04-01T00:10:47.313Z,1.90
2023-04-01T00:13:15.853Z,1.27
2023-04-01T00:15:44.477Z,4.60
2023-04-01T00:18:14.720Z,3.10
2023-04-01T00:20:46.349Z,4.13
2023-04-01T00:23:17.955Z,1.58
2023-04-01T00:25:46.377Z,1.92
2023-04-01T00:28:14.556Z,4.72
2023-04-01T00:30:42.735Z,2.50
2023-04-01T00:33:16.028Z,4.90
2023-04-01T00:35:44.187Z,3.38
2023-04-01T00:38:15.735Z,1.35
2023-04-01T00:40:45.972Z,3.58
2023-04-01T00:43:15.716Z,2.03
2023-04-01T00:45:45.873Z,1.73
2023-04-01T00:48:18.764Z,1.45
2023-04-01T00:50:50.122Z,1.27
2023-04-01T00:53:21.342Z,2.35
2023-04-01T00:55:55.143Z,1.85
2023-04-01T00:58:24.367Z,1.23
2023-04-01T01:00:53.437Z,4.90
2023-04-01T01:03:22.944Z,2.85
2023-04-01T01:06:05.387Z,1.77
2023-04-01T01:08:42.290Z,2.60
2023-04-01T01:11:14.179Z,0.85
2023-04-01T01:13:47.665Z,1.02
2023-04-01T01:16:20.897Z,3.58
2023-04-01T01:18:54.884Z,0.98
2023-04-01T01:21:58.122Z,1.10
2023-04-01T01:24:52.263Z,1.65
2023-04-01T01:27:21.417Z,1.33
2023-04-01T01:30:17.959Z,2.70
2023-04-01T01:33:07.444Z,1.48
2023-04-01T01:35:39.208Z,1.02
2023-04-01T01:38:10.950Z,3.30
2023-04-01T01:40:41.664Z,1.95
2023-04-01T01:43:12.390Z,3.83
2023-04-01T01:45:45.366Z,0.93
2023-04-01T01:48:13.958Z,2.67
2023-04-01T01:50:43.882Z,0.95
2023-04-01T01:53:13.754Z,2.08
2023-04-01T01:55:44.047Z,1.02
2023-04-01T01:58:16.048Z,3.33
2023-04-01T02:00:45.805Z,1.92
2023-04-01T02:03:15.276Z,0.75
2023-04-01T02:05:44.995Z,1.83
2023-04-01T02:08:15.428Z,0.88
2023-04-01T02:10:46.057Z,1.15
2023-04-01T02:13:18.779Z,5.65
2023-04-01T02:15:48.921Z,1.55
2023-04-01T02:18:17.657Z,0.82
2023-04-01T02:20:47.774Z,1.05
2023-04-01T02:23:16.374Z,1.60
2023-04-01T02:25:45.468Z,1.98
2023-04-01T02:28:16.831Z,4.22
2023-04-01T02:30:46.181Z,0.70
2023-04-01T02:33:14.413Z,1.70
2023-04-01T02:35:42.632Z,1.23
2023-04-01T02:38:12.280Z,1.00
2023-04-01T02:40:46.097Z,1.48
2023-04-01T02:43:14.276Z,0.60
2023-04-01T02:45:42.482Z,0.75
2023-04-01T02:48:10.681Z,0.95
2023-04-01T02:50:38.781Z,0.85
2023-04-01T02:53:07.334Z,2.08
2023-04-01T02:55:37.018Z,0.88
2023-04-01T02:58:05.428Z,1.38
2023-04-01T03:00:33.506Z,0.93
2023-04-01T03:03:01.915Z,2.42
2023-04-01T03:05:30.329Z,0.95
2023-04-01T03:07:58.513Z,2.15
2023-04-01T03:10:26.690Z,2.75
2023-04-01T03:12:56.205Z,1.70
2023-04-01T03:15:24.326Z,2.92
2023-04-01T03:17:53.656Z,1.13
2023-04-01T03:20:21.757Z,2.80
2023-04-01T03:22:49.928Z,0.50
2023-04-01T03:25:18.150Z,0.60
2023-04-01T03:27:49.236Z,0.68
2023-04-01T03:30:18.865Z,2.83
2023-04-01T03:32:47.076Z,1.90
2023-04-01T03:35:15.222Z,1.30
2023-04-01T03:37:43.315Z,2.42
2023-04-01T03:40:12.576Z,0.68
2023-04-01T03:42:40.892Z,0.60
2023-04-01T03:45:10.145Z,3.90
2023-04-01T03:47:39.962Z,0.68
2023-04-01T03:50:09.566Z,0.32
2023-04-01T03:52:39.004Z,0.63
2023-04-01T03:55:07.791Z,0.30
2023-04-01T03:57:36.021Z,0.47
2023-04-01T04:00:04.701Z,0.57
2023-04-01T04:02:32.998Z,0.90
2023-04-01T04:05:02.512Z,2.17
2023-04-01T04:07:30.594Z,6.03
2023-04-01T04:09:58.655Z,0.52
2023-04-01T04:12:26.747Z,0.65
2023-04-01T04:14:54.830Z,0.93
2023-04-01T04:17:23.054Z,0.40
2023-04-01T04:19:51.206Z,0.32
2023-04-01T04:22:20.658Z,0.63
2023-04-01T04:24:48.745Z,0.30
2023-04-01T04:27:16.893Z,0.30
2023-04-01T04:29:45.010Z,0.30
2023-04-01T04:32:13.233Z,0.88
2023-04-01T04:34:41.318Z,0.65
2023-04-01T04:37:09.407Z,0.30
2023-04-01T04:39:40.109Z,1.00
2023-04-01T04:42:08.218Z,0.30
2023-04-01T04:44:36.319Z,1.10
2023-04-01T04:47:04.778Z,0.95
2023-04-01T04:49:33.116Z,0.32
2023-04-01T04:52:01.258Z,0.60
2023-04-01T04:54:29.351Z,0.38
2023-04-01T04:56:58.908Z,0.32
2023-04-01T04:59:27.162Z,1.33
2023-04-01T05:01:55.248Z,0.90
2023-04-01T05:04:23.347Z,1.90
2023-04-01T05:06:52.804Z,0.40
2023-04-01T05:09:20.942Z,0.50
2023-04-01T05:11:49.025Z,0.52
2023-04-01T05:14:18.692Z,0.60
2023-04-01T05:16:46.934Z,0.60
2023-04-01T05:19:15.153Z,1.85
2023-04-01T05:21:43.208Z,0.90
2023-04-01T05:24:11.598Z,2.30
2023-04-01T05:26:39.661Z,0.50
2023-04-01T05:29:08.028Z,0.40
2023-04-01T05:31:37.630Z,0.43
2023-04-01T05:34:05.820Z,0.95
2023-04-01T05:36:33.904Z,0.57
2023-04-01T05:39:01.998Z,1.35
2023-04-01T05:41:30.085Z,0.52
2023-04-01T05:43:58.208Z,0.45
2023-04-01T05:46:26.571Z,1.95
2023-04-01T05:48:56.193Z,1.17
2023-04-01T05:51:24.480Z,0.40
2023-04-01T05:53:52.592Z,0.40
2023-04-01T05:56:20.742Z,0.60
2023-04-01T05:58:53.215Z,0.45
2023-04-01T06:01:21.798Z,0.77
2023-04-01T06:03:50.029Z,0.65
2023-04-01T06:06:26.407Z,0.50
2023-04-01T06:08:54.575Z,1.25
2023-04-01T06:11:30.513Z,1.35
2023-04-01T06:14:12.752Z,0.50
2023-04-01T06:16:52.252Z,1.65
2023-04-01T06:19:27.360Z,0.40
2023-04-01T06:22:31.259Z,1.33
2023-04-01T06:25:17.006Z,0.30
2023-04-01T06:27:59.628Z,0.50
2023-04-01T06:30:36.017Z,0.38
2023-04-01T06:33:24.437Z,0.70
2023-04-01T06:36:09.148Z,2.67
2023-04-01T06:38:48.460Z,1.52
2023-04-01T06:41:55.162Z,0.85
2023-04-01T06:44:28.196Z,0.43
2023-04-01T06:49:41.574Z,0.73
2023-04-01T06:52:17.601Z,0.65
2023-04-01T06:54:50.860Z,0.40
2023-04-01T06:57:26.511Z,0.40
2023-04-01T06:59:58.196Z,0.73
2023-04-01T07:02:33.407Z,0.30
2023-04-01T07:05:02.143Z,0.30
2023-04-01T07:07:36.148Z,0.70
2023-04-01T07:10:07.796Z,2.78
2023-04-01T07:12:43.276Z,0.43
2023-04-01T07:15:18.755Z,0.40
2023-04-01T07:17:48.644Z,0.40
2023-04-01T07:20:20.021Z,0.30
2023-04-01T07:22:52.199Z,0.40
2023-04-01T07:25:22.912Z,0.30
2023-04-01T07:27:52.989Z,0.73
2023-04-01T07:30:22.633Z,0.47
2023-04-01T07:32:53.575Z,0.50
2023-04-01T07:35:28.015Z,0.55
2023-04-01T07:38:11.701Z,0.30
2023-04-01T07:40:46.254Z,0.30
2023-04-01T07:43:29.548Z,0.40
2023-04-01T07:48:34.003Z,0.40
2023-04-01T07:51:04.905Z,0.75
2023-04-01T07:53:39.045Z,0.30
2023-04-01T07:56:11.564Z,0.40
2023-04-01T07:58:50.633Z,0.30
2023-04-01T08:01:24.154Z,1.08
2023-04-01T08:04:05.026Z,0.47
2023-04-01T08:06:37.539Z,0.30
2023-04-01T08:09:11.841Z,0.50
2023-04-01T08:11:51.994Z,0.40
2023-04-01T08:14:26.205Z,0.55
2023-04-01T08:17:01.977Z,1.02
2023-04-01T08:19:37.369Z,0.52
2023-04-01T08:22:09.971Z,0.47
2023-04-01T08:24:47.007Z,0.82
2023-04-01T08:27:20.397Z,0.40
2023-04-01T08:29:53.732Z,0.75
2023-04-01T08:32:27.055Z,0.30
2023-04-01T08:35:04.577Z,0.40
2023-04-01T08:37:34.982Z,0.30
2023-04-01T08:40:25.088Z,1.35
2023-04-01T08:43:03.526Z,0.50
2023-04-01T08:45:52.806Z,0.40
2023-04-01T08:48:47.524Z,0.35
2023-04-01T08:51:44.112Z,0.40
2023-04-01T08:54:39.823Z,0.30
2023-04-01T08:57:13.677Z,0.95
2023-04-01T08:59:53.047Z,1.33
2023-04-01T09:03:03.392Z,0.40
2023-04-01T09:06:07.203Z,0.60
2023-04-01T09:08:48.773Z,0.45
2023-04-01T09:11:27.999Z,2.58
2023-04-01T09:14:24.443Z,1.65
2023-04-01T09:17:18.914Z,0.20
2023-04-01T09:20:13.510Z,0.43
2023-04-01T09:22:58.730Z,0.65
2023-04-01T09:25:44.101Z,1.17
2023-04-01T09:28:15.465Z,0.30
2023-04-01T09:31:13.944Z,0.50
2023-04-01T09:34:17.949Z,0.63
2023-04-01T09:36:48.089Z,0.90
2023-04-01T09:39:38.670Z,0.60
2023-04-01T09:42:30.769Z,1.45
2023-04-01T09:45:02.052Z,0.57
2023-04-01T09:47:45.160Z,0.40
2023-04-01T09:50:23.533Z,0.32
2023-04-01T09:52:57.753Z,0.30
2023-04-01T09:55:56.905Z,0.43
2023-04-01T09:58:43.726Z,1.45
2023-04-01T10:01:49.590Z,0.30
2023-04-01T10:04:53.841Z,3.78
2023-04-01T10:07:47.326Z,0.45
2023-04-01T10:13:24.212Z,0.40
2023-04-01T10:16:14.988Z,1.63
2023-04-01T10:18:58.082Z,2.65
2023-04-01T10:21:59.423Z,0.60
2023-04-01T10:24:55.837Z,0.50
2023-04-01T10:27:34.749Z,0.73
2023-04-01T10:30:42.204Z,0.30
2023-04-01T10:33:51.910Z,1.63
2023-04-01T10:37:02.665Z,2.88
2023-04-01T10:39:37.062Z,0.45
2023-04-01T10:42:26.489Z,2.35
2023-04-01T10:45:40.918Z,0.70
2023-04-01T10:48:26.729Z,0.40
2023-04-01T10:51:20.103Z,0.60
2023-04-01T10:54:23.767Z,0.65
2023-04-01T10:56:59.602Z,0.60
2023-04-01T10:59:48.995Z,1.55
2023-04-01T11:02:50.727Z,0.98
2023-04-01T11:06:07.386Z,1.40
2023-04-01T11:09:05.162Z,1.85
2023-04-01T11:12:21.274Z,0.90
2023-04-01T11:15:18.132Z,2.50
2023-04-01T11:18:19.526Z,1.17
2023-04-01T11:21:30.274Z,1.40
2023-04-01T11:24:48.980Z,1.13
2023-04-01T11:27:33.021Z,0.80
2023-04-01T11:30:15.180Z,0.40
2023-04-01T11:32:49.577Z,1.17
2023-04-01T11:35:39.199Z,0.77
2023-04-01T11:38:20.318Z,1.75
2023-04-01T11:40:55.825Z,2.85
2023-04-01T11:43:33.941Z,1.15
2023-04-01T11:46:06.126Z,1.83
2023-04-01T11:48:45.011Z,1.25
2023-04-01T11:51:37.058Z,1.30
2023-04-01T11:54:15.728Z,2.13
2023-04-01T11:56:58.587Z,3.17
2023-04-01T11:59:48.478Z,6.72
2023-04-01T12:02:21.362Z,1.27
2023-04-01T12:05:17.778Z,2.33
2023-04-01T12:08:06.729Z,1.15
2023-04-01T12:10:41.865Z,0.98
2023-04-01T12:13:18.821Z,1.50
2023-04-01T12:15:57.587Z,0.82
2023-04-01T12:18:30.645Z,2.42
2023-04-01T12:23:48.408Z,3.63
2023-04-01T12:26:46.442Z,0.95
2023-04-01T12:29:45.576Z,0.77
2023-04-01T12:32:21.336Z,0.95
2023-04-01T12:35:02.036Z,1.15
2023-04-01T12:37:37.938Z,0.90
2023-04-01T12:40:25.691Z,0.75
2023-04-01T12:43:04.437Z,0.80
2023-04-01T12:45:34.792Z,0.70
2023-04-01T12:48:33.821Z,1.98
2023-04-01T12:51:28.879Z,2.50
2023-04-01T12:54:15.594Z,1.23
2023-04-01T12:56:52.269Z,1.65
2023-04-01T12:59:46.188Z,1.08
2023-04-01T13:02:16.021Z,0.50
2023-04-01T13:05:13.930Z,3.35
2023-04-01T13:08:02.450Z,1.00
2023-04-01T13:10:45.517Z,3.60
2023-04-01T13:13:46.768Z,0.70
2023-04-01T13:16:17.307Z,0.90
2023-04-01T13:18:56.481Z,0.65
2023-04-01T13:21:32.302Z,0.75
2023-04-01T13:24:07.071Z,0.60
2023-04-01T13:26:39.490Z,0.50
2023-04-01T13:29:12.571Z,4.47
2023-04-01T13:34:42.514Z,1.80
2023-04-01T13:37:23.113Z,2.58
2023-04-01T13:40:02.113Z,0.85
2023-04-01T13:42:32.270Z,0.82
2023-04-01T13:45:04.819Z,0.90
2023-04-01T13:48:14.935Z,0.60
2023-04-01T13:51:02.482Z,0.50
2023-04-01T13:53:57.096Z,6.30
2023-04-01T13:56:32.778Z,0.52
2023-04-01T13:59:10.001Z,2.60
2023-04-01T14:01:41.900Z,0.75
2023-04-01T14:04:36.816Z,1.98
2023-04-01T14:07:15.288Z,0.68
2023-04-01T14:09:51.971Z,0.88
2023-04-01T14:12:30.221Z,0.65
2023-04-01T14:15:35.932Z,0.50
2023-04-01T14:18:21.632Z,0.60
2023-04-01T14:20:55.638Z,0.60
2023-04-01T14:23:59.310Z,3.83
2023-04-01T14:29:18.929Z,0.50
2023-04-01T14:31:58.374Z,0.70
2023-04-01T14:34:38.711Z,0.77
2023-04-01T14:37:28.733Z,0.60
2023-04-01T14:40:16.913Z,0.80
2023-04-01T14:43:06.987Z,1.05
2023-04-01T14:45:57.756Z,3.10
2023-04-01T14:48:29.178Z,4.13
2023-04-01T14:50:58.397Z,1.20
2023-04-01T14:53:31.796Z,1.70
2023-04-01T14:56:01.096Z,1.10
2023-04-01T14:58:46.099Z,1.65
2023-04-01T15:01:32.842Z,10.13
2023-04-01T15:04:10.287Z,1.95
2023-04-01T15:07:01.725Z,1.55
2023-04-01T15:09:38.061Z,1.10
2023-04-01T15:12:18.098Z,1.45
2023-04-01T15:14:56.742Z,1.33
2023-04-01T15:17:39.462Z,1.60
2023-04-01T15:20:23.488Z,1.83
2023-04-01T15:23:03.886Z,1.70
2023-04-01T15:25:44.026Z,1.35
2023-04-01T15:28:19.602Z,1.52
2023-04-01T15:30:54.209Z,2.35
2023-04-01T15:33:49.066Z,2.28
2023-04-01T15:36:27.947Z,4.15
2023-04-01T15:39:02.653Z,1.50
2023-04-01T15:41:41.373Z,4.28
2023-04-01T15:44:28.920Z,2.78
2023-04-01T15:46:58.184Z,4.80
2023-04-01T15:49:35.234Z,3.92
2023-04-01T15:52:15.471Z,5.93
2023-04-01T15:55:09.498Z,2.17
2023-04-01T15:57:43.183Z,1.23
2023-04-01T16:00:30.807Z,1.30
2023-04-01T16:03:21.416Z,1.15
2023-04-01T16:06:05.077Z,2.83
2023-04-01T16:08:56.406Z,2.33
2023-04-01T16:11:28.581Z,1.30
2023-04-01T16:14:07.028Z,1.77
2023-04-01T16:16:47.477Z,1.35
2023-04-01T16:19:26.491Z,1.42
2023-04-01T16:21:57.424Z,1.42
2023-04-01T16:24:34.440Z,1.30
2023-04-01T16:27:06.534Z,2.22
2023-04-01T16:29:41.956Z,3.10
2023-04-01T16:32:25.848Z,4.05
2023-04-01T16:35:02.533Z,3.95
2023-04-01T16:37:36.334Z,2.67
2023-04-01T16:40:14.384Z,1.85
2023-04-01T16:42:46.948Z,2.05
2023-04-01T16:45:26.336Z,1.52
2023-04-01T16:47:58.167Z,1.70
2023-04-01T16:50:27.668Z,2.13
2023-04-01T16:53:02.985Z,1.73
2023-04-01T16:55:38.313Z,2.50
2023-04-01T16:58:08.864Z,3.17
2023-04-01T17:00:42.996Z,3.92
2023-04-01T17:03:18.541Z,2.55
2023-04-01T17:06:05.763Z,1.63
2023-04-01T17:08:47.993Z,1.55
2023-04-01T17:11:21.968Z,1.67
2023-04-01T17:13:56.893Z,2.28
2023-04-01T17:16:54.974Z,3.17
2023-04-01T17:19:34.833Z,1.90
2023-04-01T17:22:10.526Z,2.13
2023-04-01T17:24:48.580Z,1.70
2023-04-01T17:27:25.950Z,1.67
2023-04-01T17:30:14.885Z,1.60
2023-04-01T17:32:53.096Z,1.75
2023-04-01T17:35:26.589Z,1.83
2023-04-01T17:38:05.042Z,2.45
2023-04-01T17:40:41.048Z,1.92
2023-04-01T17:43:18.120Z,3.35
2023-04-01T17:45:50.839Z,2.50
2023-04-01T17:48:29.217Z,2.00
2023-04-01T17:51:16.079Z,2.30
2023-04-01T17:53:48.778Z,2.55
2023-04-01T17:56:35.545Z,2.40
2023-04-01T17:59:11.967Z,6.45
2023-04-01T18:01:52.008Z,2.00
2023-04-01T18:05:05.194Z,3.72
2023-04-01T18:07:47.791Z,2.63
2023-04-01T18:10:26.271Z,5.53
2023-04-01T18:13:32.862Z,5.68
2023-04-01T18:16:10.412Z,3.50
2023-04-01T18:18:49.593Z,2.55
2023-04-01T18:21:24.629Z,2.47
2023-04-01T18:24:02.439Z,3.70
2023-04-01T18:26:33.774Z,4.55
2023-04-01T18:29:06.833Z,3.00
2023-04-01T18:34:09.549Z,2.35
2023-04-01T18:36:43.505Z,3.35
2023-04-01T18:39:17.403Z,3.58
2023-04-01T18:41:55.385Z,5.22
2023-04-01T18:44:32.498Z,6.63
2023-04-01T18:47:09.560Z,2.38
2023-04-01T18:49:45.612Z,4.97
2023-04-01T18:52:19.759Z,7.32
2023-04-01T18:54:55.785Z,8.13
2023-04-01T18:57:24.207Z,8.18
2023-04-01T18:59:57.637Z,4.50
2023-04-01T19:02:30.863Z,6.80
2023-04-01T19:05:05.081Z,9.38
2023-04-01T19:07:49.076Z,11.43
2023-04-01T19:10:28.040Z,14.25
2023-04-01T19:13:07.264Z,17.85
2023-04-01T19:15:41.229Z,15.98
2023-04-01T19:18:32.749Z,12.57
2023-04-01T19:21:04.220Z,7.32
2023-04-01T19:24:00.720Z,5.80
2023-04-01T19:26:33.753Z,4.72
2023-04-01T19:29:07.647Z,4.28
2023-04-01T19:31:45.873Z,4.95
2023-04-01T19:34:24.836Z,4.00
2023-04-01T19:36:56.949Z,3.88
2023-04-01T19:39:36.168Z,4.32
2023-04-01T19:42:11.682Z,5.07
2023-04-01T19:44:47.203Z,7.65
2023-04-01T19:47:21.732Z,4.72
2023-04-01T19:49:56.492Z,3.25
2023-04-01T19:52:28.821Z,3.92
2023-04-01T19:55:00.672Z,2.90
2023-04-01T19:57:39.221Z,3.97
2023-04-01T20:00:14.867Z,6.00
2023-04-01T20:02:54.809Z,5.63
2023-04-01T20:05:52.276Z,4.95
2023-04-01T20:08:28.961Z,5.63
2023-04-01T20:11:04.232Z,7.38
2023-04-01T20:13:40.111Z,9.20
2023-04-01T20:16:10.280Z,8.30
2023-04-01T20:18:48.102Z,8.35
2023-04-01T20:21:27.134Z,9.65
2023-04-01T20:23:57.856Z,8.40
2023-04-01T20:26:29.904Z,7.45
2023-04-01T20:29:15.416Z,11.73
2023-04-01T20:31:46.430Z,8.18
2023-04-01T20:34:34.103Z,5.18
2023-04-01T20:37:24.197Z,6.43
2023-04-01T20:40:23.493Z,8.95
2023-04-01T20:43:25.778Z,6.82
2023-04-01T20:45:59.988Z,5.72
2023-04-01T20:48:53.533Z,6.13
2023-04-01T20:51:25.694Z,6.90
2023-04-01T20:54:00.131Z,7.50
2023-04-01T20:56:40.528Z,5.90
2023-04-01T20:59:20.515Z,13.48
2023-04-01T21:02:00.321Z,6.40
2023-04-01T21:04:33.319Z,6.53
2023-04-01T21:09:44.593Z,7.07
2023-04-01T21:12:22.132Z,7.95
2023-04-01T21:15:11.341Z,8.60
2023-04-01T21:17:50.895Z,8.85
2023-04-01T21:20:29.670Z,9.13
2023-04-01T21:23:33.066Z,9.45
2023-04-01T21:26:12.211Z,10.18
2023-04-01T21:28:51.144Z,10.57
2023-04-01T21:31:29.466Z,9.90
2023-04-01T21:34:36.975Z,11.57
2023-04-01T21:37:30.108Z,7.68
2023-04-01T21:40:18.993Z,8.88
2023-04-01T21:42:51.657Z,7.93
2023-04-01T21:45:43.376Z,6.68
2023-04-01T21:48:47.092Z,6.68
2023-04-01T21:51:55.886Z,6.72
2023-04-01T21:54:57.375Z,13.50
2023-04-01T21:58:07.036Z,6.63
2023-04-01T22:00:35.167Z,7.72
2023-04-01T22:03:41.029Z,6.88
2023-04-01T22:06:20.500Z,6.47
2023-04-01T22:09:04.628Z,6.60
2023-04-01T22:11:55.359Z,9.60
2023-04-01T22:14:28.371Z,8.95
2023-04-01T22:16:59.457Z,9.15
2023-04-01T22:19:35.819Z,9.52
2023-04-01T22:22:13.232Z,8.27
2023-04-01T22:24:49.198Z,9.68
2023-04-01T22:27:22.848Z,10.10
2023-04-01T22:30:01.439Z,9.50
2023-04-01T22:32:33.915Z,7.30
2023-04-01T22:35:08.759Z,7.65
2023-04-01T22:37:45.433Z,5.47
2023-04-01T22:40:26.114Z,2.40
2023-04-01T22:42:59.591Z,2.30
2023-04-01T22:45:48.370Z,3.20
2023-04-01T22:48:22.335Z,3.38
2023-04-01T22:50:55.870Z,2.90
2023-04-01T22:53:36.356Z,3.08
2023-04-01T22:56:09.601Z,4.10
2023-04-01T22:58:43.041Z,6.55
2023-04-01T23:01:15.643Z,6.90
2023-04-01T23:03:44.584Z,5.53
2023-04-01T23:06:17.935Z,7.00
2023-04-01T23:09:07.200Z,4.50
2023-04-01T23:11:39.571Z,4.78
2023-04-01T23:14:34.593Z,4.40
2023-04-01T23:17:08.066Z,6.05
2023-04-01T23:19:42.855Z,6.05
2023-04-01T23:22:17.595Z,9.55
2023-04-01T23:24:52.512Z,7.28
2023-04-01T23:27:23.664Z,7.78
2023-04-01T23:29:52.351Z,7.30
2023-04-01T23:32:21.749Z,6.80
2023-04-01T23:34:51.039Z,9.88
2023-04-01T23:37:20.286Z,9.65
2023-04-01T23:39:51.703Z,6.57
2023-04-01T23:42:22.320Z,7.00
2023-04-01T23:44:52.467Z,7.53
2023-04-01T23:47:23.708Z,6.00
2023-04-01T23:49:53.822Z,8.23
2023-04-01T23:52:24.779Z,6.70
2023-04-01T23:54:58.514Z,5.93
2023-04-01T23:57:30.930Z,5.07
